Time;durP1;ratioP1;P1;durP2;ratioP2;P2;SDS_P1;SDS_P2;PMS_P1;PMS_P2;Temp;Humidity;BMP_temperature;BMP_pressure;BME280_temperature;BME280_humidity;BME280_pressure;Samples;Min_cycle;Max_cycle;Signal;HPM_P1;HPM_P2
2023/03/19 00:00:30;;;;;;;7.83;6.13;;;;;;;5.68;100.00;100657.00;4993443;28;20045;-79
2023/03/19 00:02:57;;;;;;;10.10;6.83;;;;;;;5.85;100.00;100652.63;4989647;28;20053;-78
2023/03/19 00:05:25;;;;;;;10.17;7.33;;;;;;;5.74;100.00;100647.41;4990706;28;20045;-78
2023/03/19 00:07:53;;;;;;;9.00;6.60;;;;;;;5.64;100.00;100648.28;4974962;28;20038;-79
2023/03/19 00:10:23;;;;;;;9.53;7.00;;;;;;;5.59;100.00;100652.66;4982241;28;20042;-79
2023/03/19 00:12:50;;;;;;;9.57;6.77;;;;;;;5.58;100.00;100651.78;5014471;28;20054;-80
2023/03/19 00:15:19;;;;;;;12.50;6.73;;;;;;;5.57;100.00;100649.16;4966573;28;20042;-79
2023/03/19 00:17:45;;;;;;;10.97;7.03;;;;;;;5.45;100.00;100644.78;4961454;28;20077;-79
2023/03/19 00:20:14;;;;;;;10.23;7.37;;;;;;;5.44;100.00;100652.66;4998835;28;20050;-80
2023/03/19 00:22:41;;;;;;;11.57;6.60;;;;;;;5.39;100.00;100660.53;4997904;28;20068;-79
2023/03/19 00:25:09;;;;;;;7.83;6.67;;;;;;;5.48;100.00;100657.03;4992829;28;20046;-79
2023/03/19 00:27:37;;;;;;;9.60;7.33;;;;;;;5.42;100.00;100659.63;4996682;28;20568;-79
2023/03/19 00:30:06;;;;;;;8.70;6.63;;;;;;;5.52;100.00;100656.16;4991699;28;20054;-79
2023/03/19 00:32:34;;;;;;;11.07;7.57;;;;;;;5.52;100.00;100651.78;4992727;28;20038;-79
2023/03/19 00:35:02;;;;;;;9.97;7.00;;;;;;;5.47;100.00;100645.69;4976133;28;20042;-78
2023/03/19 00:37:31;;;;;;;11.43;7.00;;;;;;;5.37;100.00;100657.88;4991958;28;20081;-79
2023/03/19 00:39:58;;;;;;;10.33;6.67;;;;;;;5.22;100.00;100663.13;4991854;28;20480;-79
2023/03/19 00:42:29;;;;;;;10.13;6.67;;;;;;;5.13;100.00;100657.88;4977727;28;20502;-78
2023/03/19 00:44:56;;;;;;;7.77;6.43;;;;;;;5.14;100.00;100653.50;5001176;28;20646;-79
2023/03/19 00:47:23;;;;;;;10.20;7.27;;;;;;;5.18;100.00;100650.88;4988886;28;20088;-78
2023/03/19 00:49:58;;;;;;;11.10;7.03;;;;;;;5.07;100.00;100658.72;4995626;28;20101;-79
2023/03/19 00:52:25;;;;;;;8.30;6.53;;;;;;;5.09;100.00;100654.38;4993674;28;20034;-79
2023/03/19 00:54:51;;;;;;;7.90;6.17;;;;;;;5.03;100.00;100656.09;5005895;28;20061;-79
2023/03/19 00:57:21;;;;;;;10.67;7.40;;;;;;;5.01;100.00;100663.94;4979027;28;20042;-79
2023/03/19 00:59:50;;;;;;;10.90;7.20;;;;;;;4.98;100.00;100663.06;4992219;28;20038;-79
2023/03/19 01:02:17;;;;;;;10.70;7.00;;;;;;;5.00;100.00;100669.19;4993073;28;20129;-79
2023/03/19 01:04:47;;;;;;;8.07;6.77;;;;;;;4.90;100.00;100665.69;4993985;28;20026;-80
2023/03/19 01:07:14;;;;;;;9.40;6.80;;;;;;;4.86;100.00;100668.25;4994892;28;20065;-79
2023/03/19 01:09:41;;;;;;;9.13;6.47;;;;;;;4.84;100.00;100668.28;4994833;28;20050;-79
2023/03/19 01:12:08;;;;;;;12.93;6.90;;;;;;;4.86;100.00;100669.13;4983351;28;20041;-80
2023/03/19 01:14:34;;;;;;;9.23;6.67;;;;;;;4.87;100.00;100665.66;4989372;28;20109;-78
2023/03/19 01:17:01;;;;;;;10.67;7.07;;;;;;;4.83;100.00;100663.03;4994614;28;20750;-80
2023/03/19 01:19:28;;;;;;;10.83;7.13;;;;;;;4.79;100.00;100667.38;4992438;28;20401;-79
2023/03/19 01:21:55;;;;;;;9.97;6.83;;;;;;;4.77;100.00;100662.13;5001269;28;20038;-80
2023/03/19 01:24:22;;;;;;;9.07;6.87;;;;;;;4.69;100.00;100668.22;4992492;28;20042;-78
2023/03/19 01:26:49;;;;;;;8.97;7.20;;;;;;;4.66;100.00;100663.84;4973909;28;20031;-79
2023/03/19 01:29:16;;;;;;;9.13;7.33;;;;;;;4.62;100.00;100664.69;5007086;28;20046;-79
2023/03/19 01:31:42;;;;;;;11.37;7.27;;;;;;;4.65;100.00;100669.09;4990039;28;20046;-79
2023/03/19 01:34:09;;;;;;;10.40;7.30;;;;;;;4.66;100.00;100670.81;4995238;28;20030;-79
2023/03/19 01:36:36;;;;;;;10.33;7.60;;;;;;;4.61;100.00;100668.19;4993974;28;20093;-79
2023/03/19 01:39:03;;;;;;;11.17;7.60;;;;;;;4.62;100.00;100661.19;5009159;28;20038;-79
2023/03/19 01:41:30;;;;;;;10.67;7.27;;;;;;;4.73;100.00;100675.22;4960988;28;20042;-79
2023/03/19 01:43:56;;;;;;;10.57;7.20;;;;;;;4.65;100.00;100669.09;5008615;28;20133;-79
2023/03/19 01:46:30;;;;;;;10.40;8.00;;;;;;;4.62;100.00;100664.69;4992276;28;20487;-80
2023/03/19 01:48:59;;;;;;;10.73;8.15;;;;;;;4.55;100.00;100667.31;4971144;28;20558;-79
2023/03/19 01:51:29;;;;;;;8.43;7.27;;;;;;;4.56;100.00;100669.91;4996998;28;20037;-79
2023/03/19 01:53:58;;;;;;;12.30;7.67;;;;;;;4.53;100.00;100673.38;4992566;28;20045;-79
2023/03/19 01:56:31;;;;;;;10.17;8.00;;;;;;;4.46;100.00;100681.22;4995415;28;20053;-79
2023/03/19 01:59:03;;;;;;;11.17;8.33;;;;;;;4.48;100.00;100677.72;5001757;28;20056;-79
2023/03/19 02:01:32;;;;;;;10.07;7.80;;;;;;;4.50;100.00;100682.97;4988977;28;20038;-79
2023/03/19 02:03:59;;;;;;;10.40;7.70;;;;;;;4.44;100.00;100681.19;4984952;28;20186;-79
2023/03/19 02:06:29;;;;;;;12.63;8.63;;;;;;;4.39;100.00;100674.22;4993631;28;20042;-79
2023/03/19 02:08:55;;;;;;;12.07;8.33;;;;;;;4.36;100.00;100677.66;4988719;28;20038;-79
2023/03/19 02:11:22;;;;;;;11.53;7.80;;;;;;;4.37;100.00;100674.22;4990993;28;20042;-79
2023/03/19 02:13:52;;;;;;;12.17;8.33;;;;;;;4.38;100.00;100675.94;4991593;28;20423;-80
2023/03/19 02:16:19;;;;;;;13.23;8.87;;;;;;;4.36;100.00;100674.16;4975844;28;20042;-79
2023/03/19 02:18:46;;;;;;;10.23;7.47;;;;;;;4.36;100.00;100675.03;4980285;28;20050;-79
2023/03/19 02:21:15;;;;;;;8.93;6.90;;;;;;;4.36;100.00;100677.66;4997370;28;20483;-78
2023/03/19 02:23:49;;;;;;;9.70;7.17;;;;;;;4.36;100.00;100675.03;4991819;28;20030;-79
2023/03/19 02:26:18;;;;;;;13.27;7.80;;;;;;;4.39;100.00;100682.94;5007379;28;20077;-78
2023/03/19 02:28:46;;;;;;;10.33;7.73;;;;;;;4.43;100.00;100687.28;4991081;28;20484;-78
2023/03/19 02:31:14;;;;;;;13.93;8.43;;;;;;;4.49;100.00;100679.47;4990742;28;20517;-79
2023/03/19 02:33:40;;;;;;;10.97;8.60;;;;;;;4.50;100.00;100682.97;4990474;28;20474;-79
2023/03/19 02:36:18;;;;;;;13.33;8.83;;;;;;;4.51;100.00;100675.13;5004479;28;20042;-79
2023/03/19 02:38:45;;;;;;;13.00;8.37;;;;;;;4.46;100.00;100689.06;4975277;28;20038;-79
2023/03/19 02:41:12;;;;;;;12.70;8.10;;;;;;;4.44;100.00;100681.19;4980333;28;20058;-78
2023/03/19 02:43:40;;;;;;;13.47;9.03;;;;;;;4.54;100.00;100674.28;5008851;28;20035;-79
2023/03/19 02:46:10;;;;;;;10.63;7.50;;;;;;;4.53;100.00;100685.59;4988855;28;20578;-78
2023/03/19 02:48:37;;;;;;;11.83;7.53;;;;;;;4.46;100.00;100676.88;4971893;28;20054;-79
2023/03/19 02:51:04;;;;;;;11.83;8.17;;;;;;;4.47;100.00;100673.38;4989432;28;20030;-78
2023/03/19 02:53:31;;;;;;;12.80;8.20;;;;;;;4.44;100.00;100670.72;5000377;28;20046;-79
2023/03/19 02:55:58;;;;;;;9.67;7.77;;;;;;;4.40;100.00;100666.34;4989859;28;20038;-79
2023/03/19 02:58:25;;;;;;;9.90;7.20;;;;;;;4.39;100.00;100671.59;4971522;28;20054;-78
2023/03/19 03:00:51;;;;;;;9.57;7.30;;;;;;;4.39;100.00;100668.97;4979228;28;20037;-78
2023/03/19 03:03:18;;;;;;;12.07;7.30;;;;;;;4.37;100.00;100658.50;4991858;28;20420;-78
2023/03/19 03:05:45;;;;;;;11.53;7.30;;;;;;;4.40;100.00;100660.25;4997909;28;20037;-78
2023/03/19 03:08:11;;;;;;;10.57;7.27;;;;;;;4.48;100.00;100648.97;5006325;28;20075;-79
2023/03/19 03:10:38;;;;;;;9.90;7.20;;;;;;;4.60;100.00;100655.09;4991457;28;20085;-78
2023/03/19 03:13:05;;;;;;;10.87;7.57;;;;;;;4.66;100.00;100658.63;5011256;28;20044;-78
2023/03/19 03:15:32;;;;;;;10.47;7.53;;;;;;;4.57;100.00;100655.09;4976796;28;20038;-78
2023/03/19 03:17:59;;;;;;;9.90;7.60;;;;;;;4.49;100.00;100649.84;4989390;28;20048;-79
2023/03/19 03:20:26;;;;;;;13.47;8.87;;;;;;;4.39;100.00;100664.63;4972622;28;20038;-77
2023/03/19 03:22:53;;;;;;;10.13;7.73;;;;;;;4.39;100.00;100662.00;5011522;28;20030;-79
2023/03/19 03:25:20;;;;;;;10.43;7.87;;;;;;;4.42;100.00;100661.13;4975654;28;20043;-77
2023/03/19 03:27:46;;;;;;;12.50;7.70;;;;;;;4.42;100.00;100646.31;4991086;28;20081;-79
2023/03/19 03:30:15;;;;;;;13.07;8.23;;;;;;;4.44;100.00;100657.66;4992939;28;20034;-79
2023/03/19 03:32:41;;;;;;;11.47;6.93;;;;;;;4.45;100.00;100667.22;4992157;28;20038;-79
2023/03/19 03:35:08;;;;;;;9.20;6.77;;;;;;;4.51;100.00;100655.94;4989680;28;20037;-78
2023/03/19 03:37:36;;;;;;;10.33;7.93;;;;;;;4.53;100.00;100652.44;4990062;28;20133;-80
2023/03/19 03:40:07;;;;;;;11.97;6.97;;;;;;;4.58;100.00;100652.47;4982362;28;20045;-77
2023/03/19 03:42:36;;;;;;;11.03;7.13;;;;;;;4.58;100.00;100652.47;4976297;28;20499;-79
2023/03/19 03:45:03;;;;;;;14.23;9.43;;;;;;;4.67;100.00;100649.03;5004906;28;20109;-78
2023/03/19 03:47:31;;;;;;;12.67;9.27;;;;;;;4.63;100.00;100661.22;4974940;28;20038;-79
2023/03/19 03:49:57;;;;;;;14.40;10.13;;;;;;;4.57;100.00;100657.72;4971109;28;20152;-78
2023/03/19 03:52:24;;;;;;;19.50;13.97;;;;;;;4.59;100.00;100662.06;4986967;28;20046;-79
2023/03/19 03:54:51;;;;;;;17.93;11.73;;;;;;;4.55;100.00;100672.53;4992902;28;20042;-78
2023/03/19 03:57:17;;;;;;;24.77;16.40;;;;;;;4.61;100.00;100677.78;5001252;28;20038;-79
2023/03/19 03:59:44;;;;;;;21.83;14.30;;;;;;;4.48;100.00;100688.19;5061666;22;21615;-79
2023/03/19 04:02:11;;;;;;;28.13;19.83;;;;;;;4.58;100.00;100676.03;4938239;28;20043;-79
2023/03/19 04:04:38;;;;;;;25.43;18.93;;;;;;;4.51;100.00;100688.19;4971542;28;20058;-78
2023/03/19 04:07:05;;;;;;;27.53;18.10;;;;;;;4.67;100.00;100678.69;4976067;28;20042;-80
2023/03/19 04:09:32;;;;;;;32.80;21.33;;;;;;;4.54;100.00;100708.28;4962384;28;20050;-79
2023/03/19 04:12:01;;;;;;;38.57;24.20;;;;;;;4.49;100.00;100691.69;4978405;28;20079;-80
2023/03/19 04:14:27;;;;;;;44.20;28.70;;;;;;;4.47;100.00;100682.97;4971615;28;20043;-83
2023/03/19 04:16:54;;;;;;;38.60;24.70;;;;;;;4.49;100.00;100713.50;4962971;28;20058;-81
2023/03/19 04:19:21;;;;;;;27.47;19.53;;;;;;;4.53;100.00;100730.94;4986597;28;20049;-80
2023/03/19 04:21:47;;;;;;;19.77;13.60;;;;;;;4.55;100.00;100703.94;4984516;28;20050;-83
2023/03/19 04:24:14;;;;;;;18.97;11.57;;;;;;;4.62;100.00;100714.41;4943735;28;20411;-78
2023/03/19 04:26:41;;;;;;;14.90;11.20;;;;;;;4.66;100.00;100728.41;4968242;28;20043;-79
2023/03/19 04:29:08;;;;;;;12.73;9.97;;;;;;;4.60;100.00;100724.00;4963344;28;20035;-78
2023/03/19 04:31:35;;;;;;;13.60;10.77;;;;;;;4.66;100.00;100738.88;4967355;28;20110;-79
2023/03/19 04:34:01;;;;;;;16.17;10.20;;;;;;;4.59;100.00;100731.84;4962503;28;20058;-79
2023/03/19 04:36:28;;;;;;;14.27;10.30;;;;;;;4.63;100.00;100741.47;4976809;28;20050;-79
2023/03/19 04:38:55;;;;;;;12.80;9.37;;;;;;;4.62;100.00;100743.19;4982469;28;20133;-78
2023/03/19 04:41:22;;;;;;;13.93;10.20;;;;;;;4.77;100.00;100735.41;4976082;28;20038;-78
2023/03/19 04:43:49;;;;;;;13.70;10.13;;;;;;;4.78;100.00;100742.41;4980551;28;20061;-79
2023/03/19 04:46:15;;;;;;;13.00;10.20;;;;;;;4.69;100.00;100749.34;4969324;28;20046;-79
2023/03/19 04:48:42;;;;;;;22.13;14.63;;;;;;;4.70;100.00;100746.72;4955418;28;20070;-78
2023/03/19 04:51:09;;;;;;;33.90;21.77;;;;;;;4.79;100.00;100743.28;4979872;28;20039;-78
2023/03/19 04:53:36;;;;;;;53.73;32.73;;;;;;;4.88;100.00;100740.72;4969039;28;20039;-78
2023/03/19 04:56:03;;;;;;;48.13;33.43;;;;;;;4.80;100.00;100748.53;4966957;28;20046;-78
2023/03/19 04:58:30;;;;;;;41.07;27.97;;;;;;;4.74;100.00;100752.88;4966258;28;20050;-79
2023/03/19 05:00:57;;;;;;;39.33;27.33;;;;;;;4.75;100.00;100745.00;4966320;28;20043;-78
2023/03/19 05:03:24;;;;;;;42.23;27.10;;;;;;;4.76;100.00;100744.13;4980702;28;20050;-78
2023/03/19 05:05:53;;;;;;;34.43;25.53;;;;;;;4.76;100.00;100741.53;4945993;28;20053;-77
2023/03/19 05:08:19;;;;;;;33.30;23.63;;;;;;;4.80;100.00;100742.44;4960486;28;20137;-78
2023/03/19 05:10:46;;;;;;;29.47;20.77;;;;;;;5.03;100.00;100734.63;4971297;28;20074;-78
2023/03/19 05:13:13;;;;;;;23.83;14.90;;;;;;;4.95;100.00;100726.75;4980047;28;20114;-78
2023/03/19 05:15:44;;;;;;;18.27;13.37;;;;;;;5.02;100.00;100733.78;4962521;28;20035;-78
2023/03/19 05:18:11;;;;;;;16.40;12.40;;;;;;;4.84;100.00;100731.09;4971996;28;20046;-78
2023/03/19 05:20:39;;;;;;;18.67;12.47;;;;;;;4.88;100.00;100730.25;4977777;28;20043;-78
2023/03/19 05:23:06;;;;;;;15.37;10.87;;;;;;;4.82;100.00;100734.56;4978525;28;20066;-78
2023/03/19 05:25:34;;;;;;;15.13;11.17;;;;;;;4.84;100.00;100738.06;4947687;28;20122;-78
2023/03/19 05:28:02;;;;;;;17.77;11.20;;;;;;;4.85;100.00;100732.84;4964737;28;20050;-78
2023/03/19 05:30:30;;;;;;;15.00;11.10;;;;;;;4.93;100.00;100730.25;4965719;28;20073;-78
2023/03/19 05:32:58;;;;;;;15.50;9.90;;;;;;;4.93;100.00;100730.25;4976475;28;20054;-78
2023/03/19 05:35:28;;;;;;;15.33;10.10;;;;;;;5.13;100.00;100731.19;4975329;28;20053;-78
2023/03/19 05:37:55;;;;;;;15.60;10.23;;;;;;;5.04;100.00;100733.75;4943540;28;20074;-78
2023/03/19 05:40:22;;;;;;;16.63;11.00;;;;;;;5.40;100.00;100732.13;4977430;28;20472;-78
2023/03/19 05:42:50;;;;;;;30.57;18.50;;;;;;;5.26;100.00;100735.59;4976150;28;20039;-77
2023/03/19 05:45:17;;;;;;;24.97;14.00;;;;;;;5.11;100.00;100739.91;4954927;28;20042;-77
2023/03/19 05:47:46;;;;;;;19.33;12.80;;;;;;;5.09;100.00;100748.63;4967757;28;20044;-77
2023/03/19 05:50:13;;;;;;;18.57;12.33;;;;;;;5.11;100.00;100763.47;4990339;28;20126;-76
2023/03/19 05:52:40;;;;;;;18.80;13.73;;;;;;;5.12;100.00;100781.81;4956849;28;20066;-78
2023/03/19 05:55:08;;;;;;;16.60;12.03;;;;;;;5.15;100.00;100791.44;4972487;28;20487;-78
2023/03/19 05:57:35;;;;;;;26.03;16.27;;;;;;;5.23;100.00;100802.81;4952927;28;20055;-78
2023/03/19 06:00:05;;;;;;;14.73;11.90;;;;;;;5.23;100.00;100810.69;4970309;28;20076;-77
2023/03/19 06:02:33;;;;;;;15.07;10.13;;;;;;;5.26;100.00;100824.66;4954718;28;20061;-79
2023/03/19 06:05:00;;;;;;;16.20;11.13;;;;;;;5.31;100.00;100822.06;4940065;28;20086;-78
2023/03/19 06:07:27;;;;;;;16.20;12.57;;;;;;;5.37;100.00;100824.69;4988578;28;20479;-79
2023/03/19 06:09:54;;;;;;;27.20;16.60;;;;;;;5.65;100.00;100812.53;4954485;28;20047;-79
2023/03/19 06:12:21;;;;;;;25.90;16.53;;;;;;;5.81;100.00;100813.44;4974523;28;20093;-79
2023/03/19 06:14:47;;;;;;;24.23;15.63;;;;;;;5.70;100.00;100807.28;4969924;28;20133;-79
2023/03/19 06:17:14;;;;;;;23.30;14.57;;;;;;;5.70;100.00;100808.16;4967908;28;20098;-79
2023/03/19 06:19:41;;;;;;;42.57;23.27;;;;;;;5.55;100.00;100805.50;4944504;28;20051;-79
2023/03/19 06:22:08;;;;;;;82.33;45.57;;;;;;;5.73;100.00;100818.69;4972503;28;20041;-79
2023/03/19 06:24:35;;;;;;;49.83;28.03;;;;;;;5.65;100.00;100815.16;4991344;28;20141;-79
2023/03/19 06:27:02;;;;;;;23.13;16.07;;;;;;;5.60;100.00;100812.50;4956320;28;20504;-79
2023/03/19 06:29:29;;;;;;;19.43;13.37;;;;;;;5.54;100.00;100807.25;4955175;28;20463;-79
2023/03/19 06:31:56;;;;;;;17.93;12.30;;;;;;;5.54;100.00;100811.63;4971760;28;20560;-79
2023/03/19 06:34:24;;;;;;;19.53;13.40;;;;;;;5.57;100.00;100814.28;4956760;28;20043;-79
2023/03/19 06:36:52;;;;;;;19.13;12.93;;;;;;;5.63;100.00;100812.53;4967294;28;20043;-79
2023/03/19 06:39:19;;;;;;;19.20;12.73;;;;;;;5.65;100.00;100817.78;4975015;28;20727;-80
2023/03/19 06:41:46;;;;;;;16.80;12.03;;;;;;;5.63;100.00;100816.88;4955375;28;20043;-79
2023/03/19 06:44:13;;;;;;;17.57;13.27;;;;;;;5.87;100.00;100811.69;4953876;28;20035;-79
2023/03/19 06:46:40;;;;;;;26.27;15.77;;;;;;;5.74;100.00;100820.41;4975311;28;20039;-80
2023/03/19 06:49:08;;;;;;;27.97;16.43;;;;;;;6.02;100.00;100812.59;4961534;28;20038;-79
2023/03/19 06:51:35;;;;;;;20.60;13.60;;;;;;;5.84;100.00;100805.56;4966533;28;20054;-79
2023/03/19 06:54:02;;;;;;;17.10;12.43;;;;;;;6.01;100.00;100795.13;4971306;28;20476;-80
2023/03/19 06:56:28;;;;;;;17.20;11.73;;;;;;;5.90;100.00;100792.47;4988121;28;20039;-80
2023/03/19 06:58:55;;;;;;;17.90;12.33;;;;;;;5.82;100.00;100805.56;4973144;28;20047;-80
2023/03/19 07:01:22;;;;;;;18.97;12.13;;;;;;;5.93;100.00;100806.47;4968994;28;20031;-79
2023/03/19 07:03:49;;;;;;;18.67;12.57;;;;;;;5.82;100.00;100794.22;4965100;28;20066;-79
2023/03/19 07:06:16;;;;;;;21.00;13.97;;;;;;;5.89;100.00;100793.34;4953328;28;20057;-78
2023/03/19 07:08:45;;;;;;;20.03;14.00;;;;;;;5.87;100.00;100800.31;4974714;28;20436;-78
2023/03/19 07:11:12;;;;;;;20.27;13.63;;;;;;;5.89;100.00;100801.22;4965884;28;20407;-79
2023/03/19 07:13:39;;;;;;;20.47;13.03;;;;;;;5.90;100.00;100801.25;4963131;28;20373;-79
2023/03/19 07:16:06;;;;;;;20.77;14.50;;;;;;;6.03;100.00;100803.88;4944129;28;20035;-79
2023/03/19 07:18:33;;;;;;;18.47;13.23;;;;;;;6.03;100.00;100807.34;4967858;28;20049;-79
2023/03/19 07:21:00;;;;;;;20.70;14.23;;;;;;;6.06;100.00;100812.63;4976491;28;20053;-78
2023/03/19 07:23:27;;;;;;;26.00;15.80;;;;;;;6.28;100.00;100807.34;4950466;28;20521;-79
2023/03/19 07:25:54;;;;;;;25.10;16.43;;;;;;;6.32;100.00;100802.13;4966013;28;20066;-80
2023/03/19 07:28:21;;;;;;;24.70;15.83;;;;;;;6.31;100.00;100803.00;4938812;28;20058;-78
2023/03/19 07:30:50;;;;;;;26.10;16.53;;;;;;;6.31;100.00;100794.25;4968677;28;20043;-79
2023/03/19 07:33:18;;;;;;;21.43;14.60;;;;;;;6.31;100.00;100808.25;4956358;28;20038;-80
2023/03/19 07:35:44;;;;;;;31.23;17.10;;;;;;;6.43;100.00;100813.47;4971685;28;20035;-78
2023/03/19 07:38:11;;;;;;;30.33;16.97;;;;;;;6.41;100.00;100812.59;4953022;28;20049;-79
2023/03/19 07:40:38;;;;;;;25.80;16.90;;;;;;;6.38;100.00;100806.47;4967358;28;20119;-79
2023/03/19 07:43:11;;;;;;;27.47;17.80;;;;;;;6.32;100.00;100802.13;4972382;28;20038;-78
2023/03/19 07:45:37;;;;;;;24.07;16.10;;;;;;;6.40;100.00;100833.59;4939097;28;20039;-78
2023/03/19 07:48:05;;;;;;;27.07;16.03;;;;;;;6.52;100.00;100846.72;4973404;28;20042;-78
2023/03/19 07:50:31;;;;;;;36.13;24.20;;;;;;;6.47;100.00;100846.72;4969161;28;20134;-79
2023/03/19 07:52:59;;;;;;;25.03;17.53;;;;;;;6.49;100.00;100852.84;4960370;28;20444;-80
2023/03/19 07:55:25;;;;;;;25.57;16.90;;;;;;;6.48;100.00;100858.97;4969939;28;20043;-79
2023/03/19 07:57:52;;;;;;;28.47;16.80;;;;;;;6.54;100.00;100862.44;4955902;28;20049;-78
2023/03/19 08:00:19;;;;;;;25.27;17.27;;;;;;;6.54;100.00;100849.31;4954850;28;20460;-79
2023/03/19 08:02:46;;;;;;;27.10;16.80;;;;;;;6.59;100.00;100839.72;4955545;28;20126;-79
2023/03/19 08:05:13;;;;;;;35.30;20.90;;;;;;;6.68;100.00;100850.19;4971754;28;20034;-79
2023/03/19 08:07:40;;;;;;;31.73;19.13;;;;;;;6.58;100.00;100838.84;4968398;28;20049;-78
2023/03/19 08:10:07;;;;;;;24.67;16.53;;;;;;;6.57;100.00;100834.47;4970181;28;20141;-79
2023/03/19 08:12:39;;;;;;;28.53;16.43;;;;;;;6.58;100.00;100830.97;4980166;28;20035;-78
2023/03/19 08:15:08;;;;;;;25.97;17.50;;;;;;;6.81;100.00;100830.03;4985944;28;20043;-78
2023/03/19 08:17:37;;;;;;;24.53;15.50;;;;;;;6.98;100.00;100821.25;4952880;28;20042;-79
2023/03/19 08:20:07;;;;;;;23.40;14.57;;;;;;;6.97;100.00;100800.22;4953041;28;20031;-78
2023/03/19 08:22:37;;;;;;;23.53;14.77;;;;;;;6.84;100.00;100806.41;4971228;28;20042;-79
2023/03/19 08:25:05;;;;;;;22.33;16.10;;;;;;;6.73;100.00;100811.69;4965472;28;20042;-78
2023/03/19 08:27:34;;;;;;;20.70;14.60;;;;;;;6.71;100.00;100811.66;4942074;28;20066;-78
2023/03/19 08:30:03;;;;;;;20.63;13.83;;;;;;;6.75;100.00;100807.31;4993224;28;20046;-78
2023/03/19 08:32:30;;;;;;;26.20;15.03;;;;;;;6.77;100.00;100779.28;4968392;28;20047;-78
2023/03/19 08:34:57;;;;;;;27.77;14.80;;;;;;;6.99;100.00;100767.81;4966708;28;20082;-78
2023/03/19 08:37:24;;;;;;;21.10;13.80;;;;;;;7.17;100.00;100764.25;4974728;28;20121;-80
2023/03/19 08:39:51;;;;;;;19.93;13.50;;;;;;;6.99;100.00;100777.47;4959182;28;20042;-78
2023/03/19 08:42:18;;;;;;;21.57;13.33;;;;;;;6.97;100.00;100787.94;4983198;28;20121;-78
2023/03/19 08:44:45;;;;;;;20.17;15.30;;;;;;;7.05;100.00;100775.66;4970407;28;20086;-78
2023/03/19 08:47:12;;;;;;;19.37;14.03;;;;;;;7.08;100.00;100782.69;4970457;28;20039;-79
2023/03/19 08:49:39;;;;;;;23.97;15.77;;;;;;;7.22;100.00;100783.47;4967476;28;20130;-79
2023/03/19 08:52:07;;;;;;;21.10;14.53;;;;;;;7.47;100.00;100786.84;4947440;28;20070;-78
2023/03/19 08:54:35;;;;;;;25.17;14.70;;;;;;;7.24;100.00;100759.84;4971056;28;20200;-79
2023/03/19 08:57:02;;;;;;;23.17;15.73;;;;;;;7.40;100.00;100752.69;4986719;28;20035;-80
2023/03/19 08:59:29;;;;;;;22.37;14.53;;;;;;;7.27;100.00;100746.66;4980568;28;20043;-79
2023/03/19 09:02:03;;;;;;;19.63;12.60;;;;;;;7.38;100.00;100734.31;4957629;28;20050;-81
2023/03/19 09:04:29;;;;;;;20.00;12.30;;;;;;;7.45;100.00;100741.28;4974759;28;20070;-79
2023/03/19 09:06:56;;;;;;;11.70;7.80;;;;;;;7.78;100.00;100745.44;4969905;28;20455;-81
2023/03/19 09:09:23;;;;;;;19.30;12.17;;;;;;;8.02;100.00;100748.75;4989311;28;20050;-80
2023/03/19 09:11:50;;;;;;;16.13;10.83;;;;;;;7.97;100.00;100751.41;4956817;28;20050;-80
2023/03/19 09:14:19;;;;;;;17.67;11.13;;;;;;;7.94;100.00;100777.75;4960829;28;20070;-80
2023/03/19 09:16:46;;;;;;;13.97;10.10;;;;;;;7.93;100.00;100785.69;4974730;28;20148;-80
2023/03/19 09:19:13;;;;;;;12.33;9.73;;;;;;;7.93;100.00;100786.53;4957967;28;20042;-81
2023/03/19 09:21:40;;;;;;;12.50;8.80;;;;;;;7.99;100.00;100793.50;4976212;28;20472;-81
2023/03/19 09:24:07;;;;;;;10.93;8.33;;;;;;;8.06;100.00;100789.94;4991633;28;20047;-82
2023/03/19 09:26:34;;;;;;;12.30;8.47;;;;;;;8.21;100.00;100779.28;4941125;28;20098;-81
2023/03/19 09:29:01;;;;;;;10.90;7.87;;;;;;;8.15;100.00;100785.47;4957973;28;20467;-82
2023/03/19 09:31:28;;;;;;;11.17;7.47;;;;;;;8.19;100.00;100783.69;4971944;28;20568;-81
2023/03/19 09:33:55;;;;;;;10.13;7.20;;;;;;;8.19;100.00;100779.31;4963062;28;20497;-82
2023/03/19 09:36:22;;;;;;;12.27;7.60;;;;;;;8.25;100.00;100780.16;4973344;28;20035;-81
2023/03/19 09:38:49;;;;;;;9.47;6.90;;;;;;;8.30;100.00;100770.44;4974223;28;20037;-81
2023/03/19 09:41:58;;;;;;;10.83;7.47;;;;;;;8.41;100.00;100763.34;4941711;28;20050;-81
2023/03/19 09:44:30;;;;;;;25.07;10.03;;;;;;;8.37;100.00;100759.88;4957263;28;20097;-82
2023/03/19 09:47:25;;;;;;;11.23;7.40;;;;;;;8.43;100.00;100759.81;4971648;28;20066;-80
2023/03/19 09:50:00;;;;;;;10.13;7.37;;;;;;;8.41;100.00;100766.88;4979179;28;20038;-82
2023/03/19 09:52:27;;;;;;;;;;;;;;;8.41;100.00;100764.22;4968185;28;20043;-82
2023/03/19 09:54:57;;;;;;;11.20;7.57;;;;;;;8.51;100.00;100772.91;4981838;28;19930;-82
2023/03/19 09:57:24;;;;;;;9.63;7.37;;;;;;;8.57;100.00;100769.31;4958649;28;20031;-82
2023/03/19 09:59:52;;;;;;;11.83;7.67;;;;;;;8.68;100.00;100768.31;4967381;28;20039;-81
2023/03/19 10:02:24;;;;;;;11.87;8.00;;;;;;;8.84;100.00;100766.41;4982903;28;20416;-82
2023/03/19 10:05:07;;;;;;;11.87;7.90;;;;;;;9.01;100.00;100774.09;4985131;28;20059;-82
2023/03/19 10:08:18;;;;;;;10.17;7.80;;;;;;;9.19;100.00;100768.59;4982524;28;20101;-82
2023/03/19 10:10:59;;;;;;;11.07;6.80;;;;;;;9.40;100.00;100785.88;4977484;28;20067;-81
2023/03/19 10:13:38;;;;;;;8.13;6.23;;;;;;;9.58;100.00;100785.63;4979606;28;20075;-81
2023/03/19 10:16:11;;;;;;;6.75;5.22;;;;;;;9.92;100.00;100778.94;4969016;28;20058;-80
2023/03/19 10:18:43;;;;;;;6.05;4.35;;;;;;;10.19;100.00;100785.56;4974427;28;20473;-81
2023/03/19 10:21:15;;;;;;;7.30;4.30;;;;;;;10.40;100.00;100782.56;4961750;28;20047;-81
2023/03/19 10:23:59;;;;;;;11.07;8.05;;;;;;;10.55;100.00;100777.03;4946785;28;20057;-81
2023/03/19 10:26:30;;;;;;;;;;;;;;;10.65;100.00;100783.00;4990823;28;20065;-81
2023/03/19 10:29:09;;;;;;;4.70;4.10;;;;;;;10.79;100.00;100780.97;4981141;28;19922;-81
2023/03/19 10:31:49;;;;;;;5.30;4.03;;;;;;;10.85;100.00;100782.63;4980574;28;20039;-81
2023/03/19 10:34:49;;;;;;;4.00;3.40;;;;;;;10.87;100.00;100772.91;4981791;28;20061;-81
2023/03/19 10:37:21;;;;;;;8.65;5.60;;;;;;;10.90;100.00;100778.97;4943362;28;20081;-81
2023/03/19 10:39:50;;;;;;;4.63;3.90;;;;;;;11.09;100.00;100770.66;4971740;28;20035;-80
2023/03/19 10:42:45;;;;;;;4.25;3.80;;;;;;;11.14;100.00;100767.03;4967669;28;20046;-82
2023/03/19 10:45:30;;;;;;;5.00;3.85;;;;;;;11.18;100.00;100775.75;4955726;28;20141;-82
2023/03/19 10:47:58;;;;;;;4.15;3.40;;;;;;;11.20;100.00;100766.91;4953080;28;20067;-82
2023/03/19 10:50:37;;;;;;;4.45;3.55;;;;;;;11.28;100.00;100766.75;4985491;28;20037;-81
2023/03/19 10:53:20;;;;;;;3.83;3.30;;;;;;;11.20;100.00;100771.34;4969646;28;20050;-81
2023/03/19 10:55:50;;;;;;;4.93;3.97;;;;;;;11.32;100.00;100767.53;4971042;28;20050;-81
2023/03/19 10:58:19;;;;;;;4.38;3.90;;;;;;;11.49;100.00;100770.69;4954071;28;20061;-81
2023/03/19 11:00:48;;;;;;;5.38;4.32;;;;;;;11.66;100.00;100768.53;4959747;28;20126;-80
2023/03/19 11:03:35;;;;;;;5.53;4.60;;;;;;;11.75;100.00;100760.38;4983573;28;20034;-81
2023/03/19 11:06:26;;;;;;;5.32;3.45;;;;;;;11.99;100.00;100766.03;4968480;28;20035;-81
2023/03/19 11:09:02;;;;;;;5.50;4.50;;;;;;;12.24;100.00;100759.19;4954122;28;20039;-81
2023/03/19 11:12:05;;;;;;;4.35;3.72;;;;;;;12.59;100.00;100760.03;4951757;28;20126;-81
2023/03/19 11:14:35;;;;;;;4.40;3.47;;;;;;;12.96;100.00;100757.25;4958974;28;20047;-80
2023/03/19 11:17:10;;;;;;;3.97;2.90;;;;;;;13.05;100.00;100754.34;4970868;28;20061;-81
2023/03/19 11:19:47;;;;;;;4.35;3.08;;;;;;;13.00;100.00;100756.22;4951246;28;20630;-79
2023/03/19 11:22:16;;;;;;;3.65;2.80;;;;;;;12.91;100.00;100764.47;4969980;28;20062;-80